createdAt,value
2022-12-17T00:01:08.376Z,64.17
2022-12-17T00:03:56.964Z,66.93
2022-12-17T00:06:43.094Z,61.30
2022-12-17T00:09:29.399Z,62.10
2022-12-17T00:12:15.732Z,63.77
2022-12-17T00:15:01.924Z,63.90
2022-12-17T00:17:48.751Z,65.77
2022-12-17T00:20:36.177Z,69.47
2022-12-17T00:23:23.830Z,67.27
2022-12-17T00:26:10.907Z,63.27
2022-12-17T00:28:57.116Z,69.00
2022-12-17T00:31:45.252Z,64.23
2022-12-17T00:34:31.403Z,63.90
2022-12-17T00:37:19.327Z,66.40
2022-12-17T00:40:05.507Z,71.20
2022-12-17T00:42:51.631Z,63.20
2022-12-17T00:45:38.011Z,66.07
2022-12-17T00:48:24.060Z,65.07
2022-12-17T00:51:21.833Z,65.00
2022-12-17T00:54:09.132Z,62.67
2022-12-17T00:56:56.349Z,63.63
2022-12-17T00:59:42.578Z,60.30
2022-12-17T01:02:28.852Z,61.20
2022-12-17T01:05:14.896Z,68.60
2022-12-17T01:08:01.075Z,61.97
2022-12-17T01:10:51.470Z,64.97
2022-12-17T01:13:39.044Z,65.00
2022-12-17T01:16:27.831Z,63.30
2022-12-17T01:19:14.547Z,61.37
2022-12-17T01:22:01.151Z,58.70
2022-12-17T01:24:47.369Z,63.57
2022-12-17T01:27:34.791Z,63.37
2022-12-17T01:30:20.903Z,64.00
2022-12-17T01:33:07.098Z,63.07
2022-12-17T01:35:53.397Z,63.17
2022-12-17T01:38:39.509Z,62.80
2022-12-17T01:41:25.699Z,63.50
2022-12-17T01:44:13.031Z,60.70
2022-12-17T01:47:03.936Z,61.97
2022-12-17T01:49:50.071Z,63.10
2022-12-17T01:52:36.791Z,62.17
2022-12-17T01:55:24.411Z,59.80
2022-12-17T01:58:06.885Z,63.13
2022-12-17T02:00:54.463Z,67.77
2022-12-17T02:03:40.512Z,65.03
2022-12-17T02:06:33.634Z,69.73
2022-12-17T02:09:27.839Z,66.50
2022-12-17T02:12:22.578Z,67.37
2022-12-17T02:15:15.655Z,64.00
2022-12-17T02:18:08.538Z,73.40
2022-12-17T02:20:57.134Z,71.23
2022-12-17T02:23:56.533Z,71.83
2022-12-17T02:26:56.489Z,74.80
2022-12-17T02:29:43.463Z,69.97
2022-12-17T02:32:28.076Z,73.30
2022-12-17T02:35:30.436Z,67.10
2022-12-17T02:38:16.428Z,65.77
2022-12-17T02:41:05.825Z,64.57
2022-12-17T02:43:53.724Z,65.70
2022-12-17T02:46:39.904Z,68.77
2022-12-17T02:49:26.137Z,69.43
2022-12-17T02:52:16.695Z,68.07
2022-12-17T02:55:02.922Z,65.43
2022-12-17T02:57:53.636Z,65.40
2022-12-17T03:00:41.467Z,66.63
2022-12-17T03:03:28.079Z,68.83
2022-12-17T03:06:14.084Z,67.43
2022-12-17T03:09:00.174Z,70.70
2022-12-17T03:11:48.553Z,62.03
2022-12-17T03:14:34.691Z,64.90
2022-12-17T03:17:21.895Z,64.10
2022-12-17T03:20:09.231Z,68.60
2022-12-17T03:22:55.743Z,65.60
2022-12-17T03:25:42.385Z,66.60
2022-12-17T03:28:30.151Z,66.43
2022-12-17T03:31:17.413Z,64.20
2022-12-17T03:34:05.276Z,62.30
2022-12-17T03:36:51.484Z,59.27
2022-12-17T03:39:37.704Z,63.47
2022-12-17T03:42:23.944Z,64.00
2022-12-17T03:45:10.151Z,63.60
2022-12-17T03:47:56.657Z,65.23
2022-12-17T03:50:44.318Z,73.10
2022-12-17T03:53:30.577Z,75.57
2022-12-17T03:56:16.850Z,70.33
2022-12-17T03:59:02.978Z,68.70
2022-12-17T04:01:49.279Z,71.37
2022-12-17T04:04:35.701Z,64.60
2022-12-17T04:07:23.049Z,60.57
2022-12-17T04:10:09.106Z,62.80
2022-12-17T04:12:55.265Z,68.80
2022-12-17T04:15:55.867Z,63.27
2022-12-17T04:18:42.112Z,61.57
2022-12-17T04:21:28.307Z,61.40
2022-12-17T04:24:24.049Z,65.90
2022-12-17T04:27:10.047Z,59.83
2022-12-17T04:29:56.197Z,60.97
2022-12-17T04:32:42.420Z,59.97
2022-12-17T04:35:28.544Z,62.47
2022-12-17T04:38:14.734Z,58.30
2022-12-17T04:41:01.953Z,60.77
2022-12-17T04:43:47.985Z,63.67
2022-12-17T04:46:34.085Z,60.70
2022-12-17T04:49:20.065Z,59.37
2022-12-17T04:52:06.151Z,58.37
2022-12-17T04:54:52.434Z,61.73
2022-12-17T04:57:39.792Z,59.33
2022-12-17T05:00:27.296Z,58.03
2022-12-17T05:03:13.525Z,62.10
2022-12-17T05:05:59.624Z,58.40
2022-12-17T05:08:45.656Z,56.03
2022-12-17T05:11:31.826Z,54.90
2022-12-17T05:14:19.001Z,55.23
2022-12-17T05:17:05.215Z,58.60
2022-12-17T05:19:51.348Z,55.47
2022-12-17T05:22:37.532Z,61.23
2022-12-17T05:25:24.161Z,56.83
2022-12-17T05:28:10.419Z,59.77
2022-12-17T05:30:57.866Z,55.00
2022-12-17T05:33:44.143Z,54.40
2022-12-17T05:36:30.326Z,54.40
2022-12-17T05:39:16.255Z,57.70
2022-12-17T05:42:02.450Z,55.23
2022-12-17T05:44:48.651Z,52.83
2022-12-17T05:47:35.988Z,53.03
2022-12-17T05:50:22.326Z,52.63
2022-12-17T05:53:08.380Z,53.13
2022-12-17T05:55:54.564Z,52.97
2022-12-17T05:58:40.880Z,51.87
2022-12-17T06:01:27.111Z,54.50
2022-12-17T06:04:14.539Z,52.77
2022-12-17T06:07:00.600Z,57.80
2022-12-17T06:09:46.821Z,51.17
2022-12-17T06:12:32.928Z,52.70
2022-12-17T06:15:19.046Z,55.00
2022-12-17T06:18:16.490Z,56.07
2022-12-17T06:21:04.977Z,51.37
2022-12-17T06:23:51.122Z,53.80
2022-12-17T06:26:38.563Z,53.53
2022-12-17T06:29:30.163Z,52.50
2022-12-17T06:32:16.462Z,52.00
2022-12-17T06:35:02.501Z,54.97
2022-12-17T06:37:49.857Z,52.17
2022-12-17T06:40:36.027Z,52.53
2022-12-17T06:43:22.134Z,52.60
2022-12-17T06:46:10.609Z,52.00
2022-12-17T06:48:56.803Z,61.83
2022-12-17T06:51:42.916Z,55.40
2022-12-17T06:54:30.231Z,53.77
2022-12-17T06:57:16.444Z,50.20
2022-12-17T07:00:02.647Z,53.37
2022-12-17T07:02:48.890Z,54.07
2022-12-17T07:05:34.922Z,52.17
2022-12-17T07:08:21.047Z,55.87
2022-12-17T07:11:08.453Z,54.03
2022-12-17T07:13:54.606Z,63.17
2022-12-17T07:16:40.598Z,58.87
2022-12-17T07:19:27.595Z,57.47
2022-12-17T07:22:14.700Z,52.80
2022-12-17T07:25:00.606Z,54.57
2022-12-17T07:27:48.058Z,51.57
2022-12-17T07:30:34.387Z,51.43
2022-12-17T07:33:22.479Z,55.20
2022-12-17T07:36:08.655Z,52.53
2022-12-17T07:38:54.868Z,55.00
2022-12-17T07:41:55.540Z,51.90
2022-12-17T07:44:45.433Z,50.80
2022-12-17T07:47:31.324Z,49.13
2022-12-17T07:50:17.390Z,45.80
2022-12-17T07:53:03.490Z,46.57
2022-12-17T07:55:49.941Z,43.57
2022-12-17T07:58:36.118Z,45.43
2022-12-17T08:01:23.784Z,48.03
2022-12-17T08:04:09.910Z,43.97
2022-12-17T08:07:01.673Z,43.60
2022-12-17T08:09:50.292Z,42.07
2022-12-17T08:12:36.644Z,43.43
2022-12-17T08:15:25.912Z,41.97
2022-12-17T08:18:22.950Z,42.47
2022-12-17T08:21:12.276Z,42.23
2022-12-17T08:23:58.547Z,42.10
2022-12-17T08:26:48.122Z,47.07
2022-12-17T08:29:34.705Z,43.40
2022-12-17T08:32:20.972Z,42.80
2022-12-17T08:35:08.727Z,42.27
2022-12-17T08:37:54.890Z,40.03
2022-12-17T08:40:41.685Z,43.17
2022-12-17T08:43:28.037Z,38.90
2022-12-17T08:46:15.211Z,43.17
2022-12-17T08:49:04.295Z,44.37
2022-12-17T08:51:52.803Z,43.80
2022-12-17T08:54:38.924Z,42.83
2022-12-17T08:57:31.867Z,39.63
2022-12-17T09:00:18.849Z,39.97
2022-12-17T09:03:05.453Z,40.53
2022-12-17T09:05:51.768Z,43.67
2022-12-17T09:08:41.702Z,42.87
2022-12-17T09:11:30.349Z,42.20
2022-12-17T09:14:17.116Z,41.00
2022-12-17T09:17:17.966Z,42.80
2022-12-17T09:20:06.247Z,39.20
2022-12-17T09:22:53.217Z,39.57
2022-12-17T09:25:42.197Z,44.60
2022-12-17T09:28:31.315Z,42.57
2022-12-17T09:31:19.938Z,41.10
2022-12-17T09:34:06.951Z,51.70
2022-12-17T09:36:53.157Z,39.23
2022-12-17T09:39:40.249Z,38.13
2022-12-17T09:42:37.678Z,38.77
2022-12-17T09:45:32.944Z,36.97
2022-12-17T09:48:40.739Z,35.00
2022-12-17T09:51:39.886Z,34.27
2022-12-17T09:54:33.588Z,36.70
2022-12-17T09:57:19.828Z,32.43
2022-12-17T10:00:07.235Z,35.53
2022-12-17T10:02:53.635Z,34.97
2022-12-17T10:05:42.983Z,34.33
2022-12-17T10:08:33.310Z,35.27
2022-12-17T10:11:36.167Z,34.23
2022-12-17T10:14:25.527Z,35.17
2022-12-17T10:17:13.001Z,37.47
2022-12-17T10:20:01.184Z,34.77
2022-12-17T10:22:47.695Z,35.70
2022-12-17T10:25:36.466Z,44.65
2022-12-17T10:28:25.243Z,41.70
2022-12-17T10:31:20.407Z,40.50
2022-12-17T10:34:04.471Z,38.93
2022-12-17T10:36:50.590Z,38.53
2022-12-17T10:39:39.419Z,40.03
2022-12-17T10:42:41.499Z,37.10
2022-12-17T10:45:42.406Z,39.53
2022-12-17T10:48:39.562Z,40.33
2022-12-17T10:51:38.367Z,37.40
2022-12-17T10:54:32.864Z,38.63
2022-12-17T10:57:20.305Z,38.03
2022-12-17T11:00:06.536Z,39.23
2022-12-17T11:02:53.290Z,38.60
2022-12-17T11:05:45.332Z,37.63
2022-12-17T11:08:34.418Z,38.27
2022-12-17T11:11:23.541Z,38.40
2022-12-17T11:14:10.789Z,36.50
2022-12-17T11:17:02.034Z,39.63
2022-12-17T11:19:56.814Z,41.10
2022-12-17T11:22:48.983Z,38.53
2022-12-17T11:25:57.969Z,41.30
2022-12-17T11:28:46.064Z,41.07
2022-12-17T11:31:51.957Z,40.37
2022-12-17T11:34:47.000Z,42.30
2022-12-17T11:37:37.553Z,37.57
2022-12-17T11:40:35.397Z,38.90
2022-12-17T11:43:40.467Z,36.97
2022-12-17T11:46:39.900Z,35.90
2022-12-17T11:49:48.426Z,34.03
2022-12-17T11:52:43.414Z,34.93
2022-12-17T11:55:38.148Z,40.70
2022-12-17T11:58:35.490Z,37.20
2022-12-17T12:01:31.161Z,44.00
2022-12-17T12:04:29.477Z,37.77
2022-12-17T12:07:25.643Z,39.50
2022-12-17T12:10:16.372Z,37.50
2022-12-17T12:13:14.717Z,38.50
2022-12-17T12:16:11.013Z,37.27
2022-12-17T12:19:04.737Z,36.50
2022-12-17T12:21:59.105Z,38.50
2022-12-17T12:25:23.109Z,35.17
2022-12-17T12:28:17.929Z,37.20
2022-12-17T12:31:17.661Z,37.80
2022-12-17T12:34:09.224Z,35.17
2022-12-17T12:36:59.186Z,37.83
2022-12-17T12:39:51.261Z,40.30
2022-12-17T12:42:43.454Z,36.40
2022-12-17T12:45:49.758Z,38.30
2022-12-17T12:48:50.958Z,34.37
2022-12-17T12:51:42.291Z,36.40
2022-12-17T12:54:47.038Z,34.77
2022-12-17T12:57:51.136Z,38.30
2022-12-17T13:00:47.117Z,38.43
2022-12-17T13:03:45.216Z,38.50
2022-12-17T13:06:16.826Z,37.17
2022-12-17T13:08:45.608Z,35.73
2022-12-17T13:11:37.830Z,37.77
2022-12-17T13:14:15.276Z,34.30
2022-12-17T13:16:53.924Z,32.30
2022-12-17T13:19:37.491Z,38.17
2022-12-17T13:22:28.517Z,34.47
2022-12-17T13:25:10.583Z,33.40
2022-12-17T13:27:42.020Z,33.40
2022-12-17T13:30:22.270Z,33.97
2022-12-17T13:33:04.077Z,34.83
2022-12-17T13:35:42.393Z,32.97
2022-12-17T13:38:20.462Z,30.27
2022-12-17T13:40:59.748Z,32.67
2022-12-17T13:43:33.395Z,31.37
2022-12-17T13:46:02.362Z,33.13
2022-12-17T13:48:31.311Z,33.20
2022-12-17T13:51:03.231Z,33.37
2022-12-17T13:53:35.173Z,32.03
2022-12-17T13:56:04.214Z,33.63
2022-12-17T13:58:35.293Z,34.10
2022-12-17T14:01:09.173Z,32.07
2022-12-17T14:06:33.894Z,32.40
2022-12-17T14:09:03.719Z,30.53
2022-12-17T14:11:51.684Z,33.43
2022-12-17T14:14:27.505Z,29.10
2022-12-17T14:16:57.045Z,31.37
2022-12-17T14:19:27.947Z,27.47
2022-12-17T14:21:59.166Z,31.87
2022-12-17T14:24:29.741Z,32.63
2022-12-17T14:27:04.856Z,33.70
2022-12-17T14:29:34.431Z,34.17
2022-12-17T14:32:23.185Z,37.37
2022-12-17T14:34:58.811Z,33.40
2022-12-17T14:37:31.959Z,32.70
2022-12-17T14:40:05.532Z,28.70
2022-12-17T14:42:38.508Z,30.07
2022-12-17T14:45:23.109Z,30.73
2022-12-17T14:47:56.721Z,31.87
2022-12-17T14:50:30.347Z,29.80
2022-12-17T14:53:02.101Z,31.13
2022-12-17T14:55:34.550Z,31.03
2022-12-17T14:58:23.512Z,31.30
2022-12-17T15:01:00.558Z,25.70
2022-12-17T15:03:31.439Z,28.10
2022-12-17T15:06:02.758Z,26.67
2022-12-17T15:08:36.509Z,29.40
2022-12-17T15:11:05.970Z,26.50
2022-12-17T15:13:34.856Z,23.80
2022-12-17T15:16:03.956Z,24.83
2022-12-17T15:18:33.027Z,26.40
2022-12-17T15:21:03.027Z,24.17
2022-12-17T15:23:33.865Z,24.47
2022-12-17T15:26:04.346Z,24.87
2022-12-17T15:28:33.567Z,23.53
2022-12-17T15:31:02.856Z,24.30
2022-12-17T15:33:31.843Z,26.13
2022-12-17T15:36:00.839Z,25.33
2022-12-17T15:38:29.734Z,22.87
2022-12-17T15:41:01.769Z,22.43
2022-12-17T15:43:30.593Z,24.00
2022-12-17T15:46:03.123Z,20.97
2022-12-17T15:48:32.129Z,23.50
2022-12-17T15:51:01.267Z,21.50
2022-12-17T15:53:30.220Z,23.33
2022-12-17T15:56:03.195Z,21.77
2022-12-17T15:58:32.335Z,20.90
2022-12-17T16:01:01.692Z,19.43
2022-12-17T16:03:31.140Z,20.60
2022-12-17T16:06:03.005Z,23.07
2022-12-17T16:08:44.268Z,22.10
2022-12-17T16:11:27.610Z,20.60
2022-12-17T16:14:22.737Z,22.07
2022-12-17T16:17:31.056Z,21.90
2022-12-17T16:20:44.236Z,22.60
2022-12-17T16:23:28.780Z,24.40
2022-12-17T16:26:07.618Z,23.00
2022-12-17T16:28:39.888Z,23.50
2022-12-17T16:31:11.829Z,21.87
2022-12-17T16:33:42.680Z,22.87
2022-12-17T16:36:16.202Z,24.43
2022-12-17T16:38:48.020Z,19.40
2022-12-17T16:41:19.996Z,21.33
2022-12-17T16:43:50.788Z,19.80
2022-12-17T16:46:29.800Z,19.50
2022-12-17T16:49:00.887Z,19.80
2022-12-17T16:51:30.893Z,21.50
2022-12-17T16:54:01.451Z,20.83
2022-12-17T16:56:35.041Z,20.73
2022-12-17T16:59:09.360Z,21.17
2022-12-17T17:01:39.347Z,21.43
2022-12-17T17:04:10.773Z,21.03
2022-12-17T17:06:45.251Z,21.70
2022-12-17T17:09:15.372Z,15.70
2022-12-17T17:11:49.477Z,21.97
2022-12-17T17:14:21.701Z,17.33
2022-12-17T17:16:50.577Z,21.70
2022-12-17T17:19:20.747Z,20.87
2022-12-17T17:21:52.757Z,19.73
2022-12-17T17:24:24.346Z,22.87
2022-12-17T17:26:54.541Z,22.00
2022-12-17T17:29:25.962Z,20.03
2022-12-17T17:32:10.433Z,20.73
2022-12-17T17:34:40.588Z,23.77
2022-12-17T17:37:09.460Z,21.07
2022-12-17T17:39:38.444Z,23.17
2022-12-17T17:42:07.311Z,19.47
2022-12-17T17:44:38.557Z,20.80
2022-12-17T17:47:08.035Z,21.83
2022-12-17T17:49:36.859Z,21.93
2022-12-17T17:52:10.568Z,20.20
2022-12-17T17:54:41.102Z,21.73
2022-12-17T17:57:11.020Z,20.20
2022-12-17T17:59:42.508Z,18.67
2022-12-17T18:02:12.644Z,18.70
2022-12-17T18:04:42.135Z,19.10
2022-12-17T18:07:27.552Z,22.00
2022-12-17T18:09:57.342Z,21.30
2022-12-17T18:12:43.737Z,24.60
2022-12-17T18:15:16.183Z,21.57
2022-12-17T18:17:47.172Z,21.70
2022-12-17T18:20:17.471Z,19.30
2022-12-17T18:22:47.348Z,20.30
2022-12-17T18:25:17.945Z,22.03
2022-12-17T18:27:47.098Z,18.60
2022-12-17T18:30:18.198Z,16.90
2022-12-17T18:32:51.324Z,20.23
2022-12-17T18:35:21.412Z,19.17
2022-12-17T18:37:51.839Z,21.23
2022-12-17T18:40:20.842Z,18.40
2022-12-17T18:43:12.418Z,18.00
2022-12-17T18:45:45.220Z,20.50
2022-12-17T18:48:14.749Z,17.37
2022-12-17T18:50:43.773Z,19.33
2022-12-17T18:53:13.217Z,22.43
2022-12-17T18:55:42.351Z,22.67
2022-12-17T18:58:11.884Z,18.87
2022-12-17T19:00:42.226Z,18.50
2022-12-17T19:03:11.652Z,16.30
2022-12-17T19:05:45.848Z,19.40
2022-12-17T19:08:18.174Z,20.07
2022-12-17T19:10:47.854Z,19.80
2022-12-17T19:13:19.110Z,15.33
2022-12-17T19:15:50.710Z,15.70
2022-12-17T19:18:20.908Z,20.30
2022-12-17T19:20:50.032Z,15.80
2022-12-17T19:23:19.684Z,17.40
2022-12-17T19:25:48.749Z,17.60
2022-12-17T19:28:18.471Z,19.80
2022-12-17T19:30:49.402Z,17.10
2022-12-17T19:33:18.467Z,19.73
2022-12-17T19:35:48.951Z,17.33
2022-12-17T19:38:18.833Z,19.50
2022-12-17T19:40:52.848Z,18.10
2022-12-17T19:43:23.131Z,20.67
2022-12-17T19:45:54.468Z,16.57
2022-12-17T19:48:24.244Z,17.80
2022-12-17T19:50:58.598Z,21.97
2022-12-17T19:53:28.509Z,25.23
2022-12-17T19:55:58.884Z,25.70
2022-12-17T19:58:27.649Z,24.60
2022-12-17T20:00:58.418Z,21.53
2022-12-17T20:03:28.174Z,21.70
2022-12-17T20:05:57.275Z,21.80
2022-12-17T20:08:26.529Z,21.10
2022-12-17T20:10:56.393Z,22.27
2022-12-17T20:13:25.839Z,20.77
2022-12-17T20:16:03.109Z,19.93
2022-12-17T20:18:32.779Z,17.80
2022-12-17T20:21:06.214Z,18.90
2022-12-17T20:23:35.447Z,21.57
2022-12-17T20:26:06.230Z,21.70
2022-12-17T20:28:36.505Z,21.60
2022-12-17T20:31:08.880Z,24.60
2022-12-17T20:33:43.577Z,20.50
2022-12-17T20:36:16.550Z,23.37
2022-12-17T20:38:47.203Z,22.00
2022-12-17T20:41:19.253Z,19.50
2022-12-17T20:43:50.412Z,21.70
2022-12-17T20:46:26.713Z,19.40
2022-12-17T20:48:56.323Z,21.70
2022-12-17T20:51:28.810Z,21.20
2022-12-17T20:54:00.142Z,23.53
2022-12-17T20:56:31.068Z,23.00
2022-12-17T20:59:02.642Z,20.27
2022-12-17T21:01:35.193Z,23.07
2022-12-17T21:04:07.954Z,24.27
2022-12-17T21:06:39.956Z,25.77
2022-12-17T21:09:09.889Z,27.37
2022-12-17T21:11:41.443Z,21.60
2022-12-17T21:14:13.053Z,23.47
2022-12-17T21:16:44.932Z,28.00
2022-12-17T21:19:16.802Z,26.43
2022-12-17T21:21:47.273Z,25.00
2022-12-17T21:24:32.584Z,20.77
2022-12-17T21:27:11.154Z,25.40
2022-12-17T21:29:43.296Z,24.70
2022-12-17T21:32:27.642Z,28.13
2022-12-17T21:35:08.723Z,24.50
2022-12-17T21:37:43.681Z,25.93
2022-12-17T21:40:14.436Z,28.30
2022-12-17T21:43:01.496Z,31.90
2022-12-17T21:45:36.096Z,29.00
2022-12-17T21:48:15.369Z,27.70
2022-12-17T21:50:46.921Z,30.27
2022-12-17T21:53:16.377Z,28.87
2022-12-17T21:55:47.780Z,32.40
2022-12-17T21:58:17.189Z,29.17
2022-12-17T22:00:47.789Z,26.73
2022-12-17T22:03:19.612Z,30.50
2022-12-17T22:05:49.134Z,26.00
2022-12-17T22:08:22.773Z,25.37
2022-12-17T22:10:53.177Z,30.30
2022-12-17T22:13:45.858Z,25.90
2022-12-17T22:16:17.930Z,19.83
2022-12-17T22:18:52.202Z,22.37
2022-12-17T22:21:22.679Z,23.70
2022-12-17T22:23:52.137Z,24.00
2022-12-17T22:26:22.707Z,19.07
2022-12-17T22:28:56.307Z,27.03
2022-12-17T22:31:50.606Z,26.13
2022-12-17T22:35:41.083Z,20.80
2022-12-17T22:39:28.089Z,20.37
2022-12-17T22:44:30.449Z,22.07
2022-12-17T22:44:36.806Z,24.10
2022-12-17T22:46:02.555Z,18.97
2022-12-17T22:48:33.762Z,19.23
2022-12-17T22:51:15.041Z,19.03
2022-12-17T22:53:47.467Z,18.80
2022-12-17T22:56:24.333Z,19.80
2022-12-17T22:59:07.342Z,19.90
2022-12-17T23:01:36.432Z,20.40
2022-12-17T23:04:06.994Z,20.43
2022-12-17T23:06:39.187Z,18.90
2022-12-17T23:09:08.024Z,18.67
2022-12-17T23:11:37.002Z,20.77
2022-12-17T23:14:09.885Z,19.70
2022-12-17T23:16:40.455Z,19.40
2022-12-17T23:19:11.547Z,19.90
2022-12-17T23:21:42.307Z,18.50
2022-12-17T23:24:11.300Z,18.67
2022-12-17T23:26:40.914Z,19.97
2022-12-17T23:29:19.429Z,17.63
2022-12-17T23:31:49.075Z,20.27
2022-12-17T23:34:18.102Z,18.77
2022-12-17T23:36:48.556Z,17.50
2022-12-17T23:39:17.462Z,17.40
2022-12-17T23:41:46.198Z,15.40
2022-12-17T23:44:14.906Z,19.30
2022-12-17T23:46:43.814Z,17.47
2022-12-17T23:49:12.744Z,16.87
2022-12-17T23:51:41.510Z,18.20
2022-12-17T23:54:11.825Z,16.70
2022-12-17T23:56:40.626Z,17.20
2022-12-17T23:59:09.530Z,17.00
